x

Lake Of The Woods (45148) Wave Buoy

4:00am - Sun 25th Sep 2016 All times are UTC.

  • Sig Wave height 1.0ft
  • Peak Period 2s
  • Wind
    16mph, 20mph gusts
  • Sea Temp 63°f
  • Sea Pressure 1011.7mb

More Historic Weather Station data

Upgrade to MSW Pro to gain access to the past 30 days of data for over 8000 Wavebouys and Weather Stations around the globe.

Join Pro

Comparision Forecast

View Surf forecast
   
Sun 09/25 4:00am 1ft 2s 16 20 mph 1011.7mb 63f
3:00am 0.7ft 2s 18 22 mph 1012.2mb 63f
2:00am 0.7ft 2s 16 18 mph 1012.9mb 63f
1:00am 0.7ft 2s 16 20 mph 1013.3mb 63f
12:00am 0.7ft 2s 16 20 mph 1013.3mb 63f
Sat 09/24 11:00pm 0.3ft 2s 16 18 mph 1013mb 63f
10:00pm  -  7s 11 16 mph 1013.7mb 63f
9:00pm  -  7s 11 16 mph 1014.5mb 63f
8:00pm  -  7s 16 18 mph 1015mb 63f
7:00pm  -  7s 16 20 mph 1015.7mb 63f
6:00pm  -  7s 16 20 mph 1016.5mb 62f
5:00pm 0.3ft 2s 16 20 mph 1016.5mb 62f
4:00pm 0.3ft 2s 16 20 mph 1017mb 62f
3:00pm 0.3ft 2s 16 18 mph 1017.2mb 62f
2:00pm 0.7ft 2s 13 18 mph 1017.7mb 62f
1:00pm 0.7ft 2s 16 22 mph 1017.7mb 62f
12:00pm 0.3ft 2s 16 20 mph 1017.9mb 62f
11:00am 0.3ft 2s 13 18 mph 1018.5mb 63f
10:00am 0.3ft 2s 13 18 mph 1019.1mb 63f
9:00am  -  7s 13 16 mph 1019.6mb 63f
8:00am 0.3ft 2s 13 18 mph 1019.9mb 63f
7:00am 0.3ft 2s 16 18 mph 1020mb 63f
6:00am 0.7ft 2s 13 18 mph 1020.2mb 63f
5:00am 0.7ft 2s 16 20 mph 1019.7mb 63f
4:00am 0.7ft 2s 16 18 mph 1019.8mb 63f
3:00am 0.3ft 2s 13 18 mph 1020.5mb 63f
2:00am  -  7s 13 18 mph 1020.8mb 63f
1:00am  -  7s 9 11 mph 1021.3mb 63f
12:00am 0.3ft 3s 11 13 mph 1021.2mb 63f
Fri 09/23 11:00pm 0.3ft 2s 11 16 mph 1021.8mb 63f
10:00pm 0.7ft 2s 11 13 mph 1022.4mb 63f
9:00pm 0.3ft 3s 13 18 mph 1022.4mb 63f
8:00pm 0.3ft 2s 11 16 mph 1022.5mb 63f
7:00pm 0.3ft 2s 11 13 mph 1023.4mb 63f
6:00pm 0.3ft 2s 11 13 mph 1024.3mb 63f
5:00pm 0.7ft 2s 13 18 mph 1025mb 63f
4:00pm 0.7ft 2s 13 18 mph 1025.6mb 63f
3:00pm 0.3ft 2s 13 16 mph 1026mb 62f
2:00pm 0.3ft 2s 11 13 mph 1026.4mb 62f
1:00pm 0.3ft 3s 11 13 mph 1026.6mb 62f
12:00pm 0.3ft 3s 11 13 mph 1026.4mb 63f
11:00am 0.3ft 3s 13 16 mph 1026.1mb 63f
10:00am 0.3ft 3s 13 16 mph 1025.6mb 63f
9:00am 0.3ft 3s 9 11 mph 1025.7mb 63f
8:00am 0.3ft 3s 9 11 mph 1025.8mb 63f
7:00am 0.3ft 3s 11 13 mph 1025.6mb 63f
6:00am  -  3s 9 13 mph 1025.5mb 63f
5:00am  -  3s 9 11 mph 1025.5mb 63f
4:00am  -  3s 9 11 mph 1025.2mb 63f
3:00am 0.3ft 3s 9 13 mph 1024.8mb 63f
2:00am 0.3ft 3s 11 13 mph 1024.6mb 63f
1:00am 0.3ft 2s 11 13 mph 1024.1mb 63f
12:00am 0.3ft 2s 13 16 mph 1024mb 63f
Thu 09/22 11:00pm 0.3ft 2s 16 20 mph 1023.8mb 63f
10:00pm 0.3ft 2s 9 16 mph 1023.7mb 63f
9:00pm 0.3ft 2s 13 18 mph 1023.7mb 63f
8:00pm 0.3ft 2s 16 20 mph 1023.8mb 63f
7:00pm 0.7ft 2s 13 18 mph 1023.9mb 63f
6:00pm 0.7ft 2s 16 20 mph 1023.7mb 63f
5:00pm 0.7ft 2s 16 20 mph 1024.2mb 63f
4:00pm 0.7ft 2s 18 20 mph 1024.1mb 63f
3:00pm 0.3ft 3s 13 18 mph 1024.2mb 63f
2:00pm 0.3ft 3s 11 13 mph 1024.2mb 63f
1:00pm 0.3ft 3s 11 13 mph 1024mb 63f
12:00pm 0.3ft 3s 11 13 mph 1023.3mb 63f
11:00am  -  3s 11 13 mph 1023.1mb 63f
10:00am  -  3s 9 11 mph 1023mb 63f
9:00am  -  3s 9 11 mph 1022.7mb 63f
8:00am  -  4s 7 9 mph 1023.2mb 63f
7:00am  -  7s 7
mph
1023.1mb 63f
6:00am  -  3s 7 9 mph 1023mb 63f
5:00am  -  3s 9 11 mph 1022.9mb 63f
4:00am  -  3s 7 9 mph 1023.1mb 63f
3:00am 0.3ft 8s 9 11 mph 1022.5mb 64f
2:00am  -  3s 9 11 mph 1022.9mb 64f
1:00am  -  2s 9 13 mph 1022.6mb 64f
12:00am  -  2s 9
mph
1022.4mb 64f
Wed 09/21 11:00pm  -  2s 9
mph
1022.8mb 64f
10:00pm  -  3s 7 9 mph 1022.9mb 64f
9:00pm  -  2s 2 4 mph 1023mb 64f
8:00pm  -  2s 4 7 mph 1023.4mb 64f
7:00pm  -  2s 7 9 mph 1023.4mb 64f
6:00pm  -  3s 4 7 mph 1023.4mb 64f
5:00pm  -  3s 4 9 mph 1023.9mb 64f
4:00pm  -  2s 7 9 mph 1023.6mb 64f
3:00pm  -  3s 7 9 mph 1023.3mb 63f
2:00pm  -  3s 4 7 mph 1023.5mb 63f
1:00pm  -  3s 4 7 mph 1023.4mb 63f
12:00pm  -  3s 7 9 mph 1022.2mb 64f
11:00am  -  2s 7 9 mph 1021.4mb 63f
10:00am  -  2s 4 7 mph 1021.6mb 64f
9:00am  -  7s 4
mph
1021mb 64f
8:00am  -  2s 2
mph
1020.9mb 64f
7:00am  -  2s 7
mph
1020.7mb 64f
6:00am  -  4s 4 7 mph 1020.6mb 64f